createdAt,value
2019-03-31T00:00:22.655Z,0.00
2019-03-31T00:01:22.830Z,0.00
2019-03-31T00:02:23.012Z,0.00
2019-03-31T00:03:23.187Z,0.00
2019-03-31T00:04:23.359Z,0.00
2019-03-31T00:05:24.180Z,0.00
2019-03-31T00:06:23.728Z,0.00
2019-03-31T00:07:23.910Z,0.00
2019-03-31T00:08:24.079Z,0.00
2019-03-31T00:09:24.252Z,0.00
2019-03-31T00:10:24.433Z,0.00
2019-03-31T00:11:24.601Z,0.00
2019-03-31T00:12:24.770Z,0.00
2019-03-31T00:13:24.947Z,0.00
2019-03-31T00:14:25.122Z,0.00
2019-03-31T00:15:25.297Z,0.00
2019-03-31T00:16:25.467Z,0.00
2019-03-31T00:17:25.642Z,0.00
2019-03-31T00:18:25.812Z,0.00
2019-03-31T00:19:25.989Z,0.00
2019-03-31T00:20:26.164Z,0.00
2019-03-31T00:21:26.339Z,0.00
2019-03-31T00:22:27.185Z,0.00
2019-03-31T00:23:26.732Z,0.00
2019-03-31T00:24:26.906Z,0.00
2019-03-31T00:25:27.095Z,0.00
2019-03-31T00:26:27.254Z,0.00
2019-03-31T00:27:27.427Z,0.00
2019-03-31T00:28:27.602Z,0.00
2019-03-31T00:29:27.777Z,0.00
2019-03-31T00:30:27.952Z,0.00
2019-03-31T00:31:28.130Z,0.00
2019-03-31T00:32:28.302Z,0.00
2019-03-31T00:33:28.478Z,0.00
2019-03-31T00:34:28.649Z,0.00
2019-03-31T00:35:28.823Z,0.00
2019-03-31T00:36:28.999Z,0.00
2019-03-31T00:37:29.169Z,0.00
2019-03-31T00:38:29.342Z,0.00
2019-03-31T00:39:29.511Z,0.00
2019-03-31T00:40:29.684Z,0.00
2019-03-31T00:41:29.859Z,0.00
2019-03-31T00:42:30.031Z,0.00
2019-03-31T00:43:30.207Z,0.00
2019-03-31T00:44:30.378Z,0.00
2019-03-31T00:45:30.551Z,0.00
2019-03-31T00:46:30.728Z,0.00
2019-03-31T00:47:30.899Z,0.00
2019-03-31T00:48:31.079Z,0.00
2019-03-31T00:49:31.257Z,0.00
2019-03-31T00:50:31.419Z,0.00
2019-03-31T00:51:31.595Z,0.00
2019-03-31T00:52:31.764Z,0.00
2019-03-31T00:53:31.949Z,0.00
2019-03-31T00:54:32.117Z,0.00
2019-03-31T00:55:32.290Z,0.00
2019-03-31T00:56:32.468Z,0.00
2019-03-31T00:57:32.633Z,0.00
2019-03-31T00:58:32.808Z,0.00
2019-03-31T00:59:32.982Z,0.00
2019-03-31T01:00:33.155Z,0.00
2019-03-31T01:01:36.749Z,0.00
2019-03-31T01:02:33.507Z,0.00
2019-03-31T01:03:33.677Z,0.00
2019-03-31T01:04:33.851Z,0.00
2019-03-31T01:05:34.027Z,0.00
2019-03-31T01:06:34.200Z,0.00
2019-03-31T01:07:34.373Z,0.00
2019-03-31T01:08:34.549Z,0.00
2019-03-31T01:09:34.720Z,0.00
2019-03-31T01:10:34.905Z,0.00
2019-03-31T01:11:35.066Z,0.00
2019-03-31T01:12:35.245Z,0.00
2019-03-31T01:13:35.420Z,0.00
2019-03-31T01:14:35.588Z,0.00
2019-03-31T01:15:35.761Z,0.00
2019-03-31T01:16:35.938Z,0.00
2019-03-31T01:17:36.123Z,0.00
2019-03-31T01:18:36.283Z,0.00
2019-03-31T01:19:36.457Z,0.00
2019-03-31T01:20:36.682Z,0.00
2019-03-31T01:21:36.854Z,0.00
2019-03-31T01:22:36.981Z,0.00
2019-03-31T01:23:37.154Z,0.00
2019-03-31T01:24:37.328Z,0.00
2019-03-31T01:25:37.500Z,0.00
2019-03-31T01:26:37.674Z,0.00
2019-03-31T01:27:37.849Z,0.00
2019-03-31T01:28:38.696Z,0.00
2019-03-31T01:29:38.250Z,0.00
2019-03-31T01:30:38.420Z,0.00
2019-03-31T01:31:49.703Z,0.00
2019-03-31T01:32:38.767Z,0.00
2019-03-31T01:33:38.942Z,0.00
2019-03-31T01:34:39.116Z,0.00
2019-03-31T01:35:39.294Z,0.00
2019-03-31T01:36:39.462Z,0.00
2019-03-31T01:37:39.645Z,0.00
2019-03-31T01:38:39.808Z,0.00
2019-03-31T01:39:40.011Z,0.00
2019-03-31T01:40:40.162Z,0.00
2019-03-31T01:41:40.319Z,0.00
2019-03-31T01:42:40.489Z,0.00
2019-03-31T01:43:40.660Z,0.00
2019-03-31T01:44:40.833Z,0.00
2019-03-31T01:45:41.012Z,0.00
2019-03-31T01:46:41.184Z,0.00
2019-03-31T01:47:41.353Z,0.00
2019-03-31T01:48:41.541Z,0.00
2019-03-31T01:49:41.702Z,0.00
2019-03-31T01:50:41.862Z,0.00
2019-03-31T01:51:42.059Z,0.00
2019-03-31T01:52:42.227Z,0.00
2019-03-31T01:53:42.406Z,0.00
2019-03-31T01:54:42.574Z,0.00
2019-03-31T01:55:42.752Z,0.00
2019-03-31T01:56:44.773Z,0.00
2019-03-31T01:57:43.100Z,0.00
2019-03-31T01:58:43.271Z,0.00
2019-03-31T01:59:43.452Z,0.00
2019-03-31T02:00:43.621Z,0.00
2019-03-31T02:01:43.793Z,0.00
2019-03-31T02:02:43.962Z,0.00
2019-03-31T02:03:44.141Z,0.00
2019-03-31T02:04:44.311Z,0.00
2019-03-31T02:05:44.486Z,0.00
2019-03-31T02:06:44.663Z,0.00
2019-03-31T02:07:44.833Z,0.00
2019-03-31T02:08:45.017Z,0.00
2019-03-31T02:09:45.181Z,0.00
2019-03-31T02:12:25.690Z,0.00
2019-03-31T02:13:25.864Z,0.00
2019-03-31T02:14:26.035Z,0.00
2019-03-31T02:15:26.208Z,0.00
2019-03-31T02:16:26.383Z,0.00
2019-03-31T02:17:26.559Z,0.00
2019-03-31T02:18:26.740Z,0.00
2019-03-31T02:19:26.904Z,0.00
2019-03-31T02:20:27.077Z,0.00
2019-03-31T02:21:27.260Z,0.00
2019-03-31T02:22:27.425Z,0.00
2019-03-31T02:23:27.597Z,0.00
2019-03-31T02:24:27.776Z,0.00
2019-03-31T02:25:27.956Z,0.00
2019-03-31T02:26:28.121Z,0.00
2019-03-31T02:27:28.290Z,0.00
2019-03-31T02:28:28.465Z,0.00
2019-03-31T02:29:28.640Z,0.00
2019-03-31T02:30:28.818Z,0.00
2019-03-31T02:31:29.000Z,0.00
2019-03-31T02:32:29.168Z,0.00
2019-03-31T02:33:29.341Z,0.00
2019-03-31T02:34:29.520Z,0.00
2019-03-31T02:35:29.694Z,0.00
2019-03-31T02:36:29.864Z,0.00
2019-03-31T02:37:30.043Z,0.00
2019-03-31T02:38:30.222Z,0.00
2019-03-31T02:39:30.389Z,0.00
2019-03-31T02:40:30.565Z,0.00
2019-03-31T02:41:30.841Z,0.00
2019-03-31T02:42:30.914Z,0.00
2019-03-31T02:43:31.080Z,0.00
2019-03-31T02:44:31.249Z,0.00
2019-03-31T02:45:31.431Z,0.00
2019-03-31T02:46:31.606Z,0.00
2019-03-31T02:47:31.782Z,0.00
2019-03-31T02:48:31.961Z,0.00
2019-03-31T02:49:32.129Z,0.00
2019-03-31T02:50:32.304Z,0.00
2019-03-31T02:51:32.480Z,0.00
2019-03-31T02:52:32.649Z,0.00
2019-03-31T02:53:32.822Z,0.00
2019-03-31T02:54:32.999Z,0.00
2019-03-31T02:55:33.164Z,0.00
2019-03-31T02:56:33.355Z,0.00
2019-03-31T02:57:33.529Z,0.00
2019-03-31T02:58:33.689Z,0.00
2019-03-31T02:59:33.860Z,0.00
2019-03-31T03:00:35.431Z,0.00
2019-03-31T03:01:34.231Z,0.00
2019-03-31T03:02:42.015Z,0.00
2019-03-31T03:03:34.585Z,0.00
2019-03-31T03:04:34.771Z,0.00
2019-03-31T03:05:34.935Z,0.00
2019-03-31T03:06:35.107Z,0.00
2019-03-31T03:07:35.283Z,0.00
2019-03-31T03:08:35.453Z,0.00
2019-03-31T03:09:35.626Z,0.00
2019-03-31T03:10:35.801Z,0.00
2019-03-31T03:11:35.971Z,0.00
2019-03-31T03:12:36.146Z,0.00
2019-03-31T03:13:36.317Z,0.00
2019-03-31T03:14:36.493Z,0.00
2019-03-31T03:15:37.282Z,0.00
2019-03-31T03:16:36.824Z,0.00
2019-03-31T03:17:37.005Z,0.00
2019-03-31T03:18:37.176Z,0.00
2019-03-31T03:19:37.379Z,0.00
2019-03-31T03:20:37.519Z,0.00
2019-03-31T03:21:37.692Z,0.00
2019-03-31T03:22:37.875Z,0.00
2019-03-31T03:23:38.056Z,0.00
2019-03-31T03:24:38.227Z,0.00
2019-03-31T03:25:54.549Z,0.00
2019-03-31T03:26:38.575Z,0.00
2019-03-31T03:27:38.746Z,0.00
2019-03-31T03:28:38.915Z,0.00
2019-03-31T03:29:39.108Z,0.00
2019-03-31T03:30:39.459Z,0.00
2019-03-31T03:31:39.444Z,0.00
2019-03-31T03:32:39.621Z,0.00
2019-03-31T03:33:39.802Z,0.00
2019-03-31T03:35:40.129Z,0.00
2019-03-31T03:36:43.306Z,0.00
2019-03-31T03:37:40.476Z,0.00
2019-03-31T03:38:40.649Z,0.00
2019-03-31T03:39:40.822Z,0.00
2019-03-31T03:40:40.997Z,0.00
2019-03-31T03:41:41.179Z,0.00
2019-03-31T03:42:41.398Z,0.00
2019-03-31T03:43:55.263Z,0.00
2019-03-31T03:44:41.737Z,0.00
2019-03-31T03:45:41.911Z,0.00
2019-03-31T03:46:42.089Z,0.00
2019-03-31T03:47:42.262Z,0.00
2019-03-31T03:48:42.452Z,0.00
2019-03-31T03:49:42.603Z,0.00
2019-03-31T03:50:42.780Z,0.00
2019-03-31T03:51:42.956Z,0.00
2019-03-31T03:52:43.136Z,0.00
2019-03-31T03:53:43.298Z,0.00
2019-03-31T03:54:43.474Z,0.00
2019-03-31T03:55:43.651Z,0.00
2019-03-31T03:56:43.820Z,0.00
2019-03-31T03:57:43.997Z,0.00
2019-03-31T03:58:44.164Z,0.00
2019-03-31T03:59:44.341Z,0.00
2019-03-31T04:00:44.518Z,0.00
2019-03-31T04:01:44.696Z,0.00
2019-03-31T04:02:44.872Z,0.00
2019-03-31T04:03:45.029Z,0.00
2019-03-31T04:04:45.203Z,0.00
2019-03-31T04:05:45.380Z,0.00
2019-03-31T04:06:45.555Z,0.00
2019-03-31T04:07:45.726Z,0.00
2019-03-31T04:08:45.899Z,0.00
2019-03-31T04:09:46.077Z,0.00
2019-03-31T04:10:46.261Z,0.00
2019-03-31T04:11:46.420Z,0.00
2019-03-31T04:12:46.592Z,0.00
2019-03-31T04:13:46.771Z,0.00
2019-03-31T04:14:46.943Z,0.00
2019-03-31T04:15:47.109Z,0.00
2019-03-31T04:16:47.283Z,0.00
2019-03-31T04:17:47.456Z,0.00
2019-03-31T04:18:47.638Z,0.00
2019-03-31T04:19:47.802Z,0.00
2019-03-31T04:20:47.975Z,0.00
2019-03-31T04:21:48.153Z,0.00
2019-03-31T04:22:48.324Z,0.00
2019-03-31T04:23:48.494Z,0.00
2019-03-31T04:24:48.675Z,4.00
2019-03-31T04:25:48.832Z,4.00
2019-03-31T04:26:49.005Z,0.00
2019-03-31T04:27:49.186Z,4.00
2019-03-31T04:28:49.368Z,0.00
2019-03-31T04:29:49.531Z,4.00
2019-03-31T04:30:49.697Z,4.00
2019-03-31T04:31:49.864Z,4.00
2019-03-31T04:32:50.042Z,4.00
2019-03-31T04:33:52.766Z,4.00
2019-03-31T04:34:50.396Z,8.00
2019-03-31T04:35:50.562Z,8.00
2019-03-31T04:36:50.739Z,8.00
2019-03-31T04:37:50.909Z,12.00
2019-03-31T04:38:51.081Z,16.00
2019-03-31T04:39:51.259Z,16.00
2019-03-31T04:40:51.441Z,20.00
2019-03-31T04:41:51.623Z,24.00
2019-03-31T04:42:51.786Z,28.00
2019-03-31T04:43:51.959Z,36.00
2019-03-31T04:44:52.182Z,40.00
2019-03-31T04:45:52.303Z,48.00
2019-03-31T04:46:52.480Z,52.00
2019-03-31T04:47:52.650Z,60.00
2019-03-31T04:48:52.817Z,72.00
2019-03-31T04:49:52.988Z,76.00
2019-03-31T04:50:53.155Z,88.00
2019-03-31T04:51:53.339Z,100.00
2019-03-31T04:52:53.505Z,112.00
2019-03-31T04:53:53.683Z,128.00
2019-03-31T04:54:53.857Z,140.00
2019-03-31T04:55:54.022Z,156.00
2019-03-31T04:56:54.195Z,172.00
2019-03-31T04:57:54.369Z,192.00
2019-03-31T04:58:54.539Z,212.00
2019-03-31T04:59:54.719Z,232.00
2019-03-31T05:00:54.892Z,252.00
2019-03-31T05:01:55.066Z,276.00
2019-03-31T05:02:55.242Z,300.00
2019-03-31T05:04:04.658Z,328.00
2019-03-31T05:04:55.594Z,356.00
2019-03-31T05:05:55.762Z,388.00
2019-03-31T05:06:55.938Z,420.00
2019-03-31T05:07:56.106Z,460.00
2019-03-31T05:08:56.288Z,496.00
2019-03-31T05:09:56.458Z,536.00
2019-03-31T05:10:56.624Z,580.00
2019-03-31T05:11:56.792Z,628.00
2019-03-31T05:12:57.964Z,680.00
2019-03-31T05:13:57.137Z,732.00
2019-03-31T05:14:57.310Z,788.00
2019-03-31T05:15:57.481Z,848.00
2019-03-31T05:16:57.655Z,912.00
2019-03-31T05:17:57.828Z,976.00
2019-03-31T05:18:57.995Z,1040.00
2019-03-31T05:19:58.176Z,1112.00
2019-03-31T05:20:58.348Z,1196.00
2019-03-31T05:21:58.509Z,1276.00
2019-03-31T05:22:58.699Z,1328.00
2019-03-31T05:23:58.869Z,1428.00
2019-03-31T05:24:59.040Z,1492.00
2019-03-31T05:25:59.212Z,1552.00
2019-03-31T05:26:59.388Z,1600.00
2019-03-31T05:27:59.568Z,1676.00
2019-03-31T05:28:59.731Z,1780.00
2019-03-31T05:29:59.905Z,1880.00
2019-03-31T05:31:00.081Z,1984.00
2019-03-31T05:32:00.256Z,2112.00
2019-03-31T05:33:00.425Z,2252.00
2019-03-31T05:34:00.594Z,2392.00
2019-03-31T05:35:00.766Z,2532.00
2019-03-31T05:36:00.941Z,2664.00
2019-03-31T05:37:01.122Z,2792.00
2019-03-31T05:38:01.286Z,2916.00
2019-03-31T05:39:01.458Z,3036.00
2019-03-31T05:40:01.635Z,3160.00
2019-03-31T05:41:01.805Z,3292.00
2019-03-31T05:42:01.977Z,3424.00
2019-03-31T05:43:02.152Z,3580.00
2019-03-31T05:44:05.954Z,3752.00
2019-03-31T05:45:02.484Z,3936.00
2019-03-31T05:46:02.660Z,4120.00
2019-03-31T05:49:47.639Z,4720.00
2019-03-31T05:50:47.801Z,4820.00
2019-03-31T05:51:47.976Z,4912.00
2019-03-31T05:52:48.154Z,5000.00
2019-03-31T05:53:48.327Z,5092.00
2019-03-31T05:54:48.502Z,5204.00
2019-03-31T05:55:48.673Z,5712.00
2019-03-31T05:56:48.844Z,7432.00
2019-03-31T05:57:49.018Z,9372.00
2019-03-31T05:58:49.214Z,9972.00
2019-03-31T05:59:49.367Z,10208.00
2019-03-31T06:00:49.545Z,9624.00
2019-03-31T06:01:49.757Z,10784.00
2019-03-31T06:02:49.898Z,10816.00
2019-03-31T06:03:50.072Z,11008.00
2019-03-31T06:04:50.248Z,12064.00
2019-03-31T06:05:50.432Z,13472.00
2019-03-31T06:06:50.595Z,14592.00
2019-03-31T06:07:50.779Z,15008.00
2019-03-31T06:08:50.947Z,15136.00
2019-03-31T06:09:51.121Z,14720.00
2019-03-31T06:10:51.382Z,14112.00
2019-03-31T06:11:53.435Z,13280.00
2019-03-31T06:12:51.654Z,15456.00
2019-03-31T06:13:51.820Z,16416.00
2019-03-31T06:14:51.996Z,16480.00
2019-03-31T06:15:52.170Z,16320.00
2019-03-31T06:16:52.348Z,16128.00
2019-03-31T06:17:52.527Z,16992.00
2019-03-31T06:18:52.706Z,17824.00
2019-03-31T06:19:52.890Z,18880.00
2019-03-31T06:20:53.064Z,17984.00
2019-03-31T06:21:53.237Z,17120.00
2019-03-31T06:22:53.418Z,16928.00
2019-03-31T06:23:53.601Z,17760.00
2019-03-31T06:24:53.773Z,18720.00
2019-03-31T06:25:54.063Z,19488.00
2019-03-31T06:26:54.125Z,18816.00
2019-03-31T06:27:54.308Z,18752.00
2019-03-31T06:28:54.488Z,19552.00
2019-03-31T06:29:54.744Z,20928.00
2019-03-31T06:30:54.847Z,21504.00
2019-03-31T06:31:55.025Z,21952.00
2019-03-31T06:32:55.666Z,19584.00
2019-03-31T06:33:55.389Z,21504.00
2019-03-31T06:34:55.565Z,21824.00
2019-03-31T06:35:55.739Z,22976.00
2019-03-31T06:36:55.920Z,23456.00
2019-03-31T06:37:56.095Z,23584.00
2019-03-31T06:38:56.273Z,23168.00
2019-03-31T06:39:56.456Z,23008.00
2019-03-31T06:40:56.643Z,23008.00
2019-03-31T06:41:56.810Z,23296.00
2019-03-31T06:42:56.992Z,23712.00
2019-03-31T06:43:57.174Z,23744.00
2019-03-31T06:44:57.355Z,23840.00
2019-03-31T06:45:57.531Z,20128.00
2019-03-31T06:46:57.711Z,15072.00
2019-03-31T06:47:57.899Z,19680.00
2019-03-31T06:48:58.067Z,21984.00
2019-03-31T06:49:58.246Z,16992.00
2019-03-31T06:50:58.432Z,15872.00
2019-03-31T06:51:58.620Z,14656.00
2019-03-31T06:52:58.804Z,12656.00
2019-03-31T06:53:58.984Z,13656.00
2019-03-31T06:54:59.167Z,12328.00
2019-03-31T06:55:59.349Z,13024.00
2019-03-31T06:56:59.539Z,17312.00
2019-03-31T06:57:59.713Z,23424.00
2019-03-31T06:58:59.893Z,25056.00
2019-03-31T07:00:00.287Z,24256.00
2019-03-31T07:01:00.254Z,26368.00
2019-03-31T07:02:03.016Z,25312.00
2019-03-31T07:03:00.618Z,26208.00
2019-03-31T07:04:00.800Z,24096.00
2019-03-31T07:05:01.843Z,24096.00
2019-03-31T07:06:01.167Z,17760.00
2019-03-31T07:07:01.338Z,24768.00
2019-03-31T07:08:02.208Z,27008.00
2019-03-31T07:09:01.771Z,27360.00
2019-03-31T07:10:01.970Z,27904.00
2019-03-31T07:11:02.150Z,22528.00
2019-03-31T07:12:02.307Z,14792.00
2019-03-31T07:13:02.498Z,18784.00
2019-03-31T07:14:02.672Z,18592.00
2019-03-31T07:15:02.860Z,10532.00
2019-03-31T07:16:03.040Z,13188.00
2019-03-31T07:17:03.221Z,7736.00
2019-03-31T07:18:03.403Z,7372.00
2019-03-31T07:19:03.589Z,7224.00
2019-03-31T07:20:03.796Z,7524.00
2019-03-31T07:21:04.959Z,8064.00
2019-03-31T07:22:04.143Z,8564.00
2019-03-31T07:23:04.317Z,10324.00
2019-03-31T07:24:04.505Z,16192.00
2019-03-31T07:25:04.692Z,19136.00
2019-03-31T07:26:04.867Z,15616.00
2019-03-31T07:27:05.036Z,24832.00
2019-03-31T07:28:05.218Z,27744.00
2019-03-31T07:29:05.405Z,28832.00
2019-03-31T07:30:07.160Z,29440.00
2019-03-31T07:31:05.767Z,27744.00
2019-03-31T07:32:06.721Z,27200.00
2019-03-31T07:33:06.146Z,28640.00
2019-03-31T07:34:06.333Z,26912.00
2019-03-31T07:35:17.891Z,21728.00
2019-03-31T07:36:06.692Z,26592.00
2019-03-31T07:37:06.871Z,25408.00
2019-03-31T07:38:07.056Z,20128.00
2019-03-31T07:39:07.347Z,23584.00
2019-03-31T07:40:07.448Z,20128.00
2019-03-31T07:41:13.138Z,16864.00
2019-03-31T07:42:07.842Z,18624.00
2019-03-31T07:43:07.992Z,21344.00
2019-03-31T07:44:08.156Z,20832.00
2019-03-31T07:45:08.335Z,19392.00
2019-03-31T07:46:08.519Z,23104.00
2019-03-31T07:47:08.702Z,23936.00
2019-03-31T07:48:08.886Z,23104.00
2019-03-31T07:49:09.065Z,23296.00
2019-03-31T07:50:09.251Z,21344.00
2019-03-31T07:51:09.419Z,17312.00
2019-03-31T07:52:09.606Z,20064.00
2019-03-31T07:53:09.796Z,19680.00
2019-03-31T07:54:09.974Z,17792.00
2019-03-31T07:55:10.166Z,23040.00
2019-03-31T07:56:10.355Z,21312.00
2019-03-31T07:57:10.534Z,23968.00
2019-03-31T07:58:10.781Z,22784.00
2019-03-31T07:59:10.949Z,21248.00
2019-03-31T08:00:11.090Z,16320.00
2019-03-31T08:01:11.293Z,13024.00
2019-03-31T08:02:11.461Z,14608.00
2019-03-31T08:03:11.642Z,21632.00
2019-03-31T08:04:11.822Z,20576.00
2019-03-31T08:05:12.004Z,21024.00
2019-03-31T08:06:12.185Z,20224.00
2019-03-31T08:07:12.376Z,15584.00
2019-03-31T08:08:12.565Z,13544.00
2019-03-31T08:09:12.740Z,12876.00
2019-03-31T08:10:12.906Z,10536.00
2019-03-31T08:11:13.090Z,9444.00
2019-03-31T08:12:13.276Z,8740.00
2019-03-31T08:13:14.447Z,8372.00
2019-03-31T08:14:13.639Z,7976.00
2019-03-31T08:15:13.816Z,7868.00
2019-03-31T08:16:14.002Z,7820.00
2019-03-31T08:17:14.182Z,8176.00
2019-03-31T08:18:14.363Z,8896.00
2019-03-31T08:19:14.548Z,9372.00
2019-03-31T08:20:14.725Z,9708.00
2019-03-31T08:21:14.919Z,10240.00
2019-03-31T08:22:15.091Z,10748.00
2019-03-31T08:23:15.278Z,10080.00
2019-03-31T08:24:15.458Z,9588.00
2019-03-31T08:25:15.634Z,9376.00
2019-03-31T08:26:15.820Z,8800.00
2019-03-31T08:27:15.999Z,8564.00
2019-03-31T08:28:16.188Z,8532.00
2019-03-31T08:29:16.360Z,8600.00
2019-03-31T08:30:16.569Z,8812.00
2019-03-31T08:31:16.718Z,9244.00
2019-03-31T08:32:16.902Z,9576.00
2019-03-31T08:33:17.085Z,10532.00
2019-03-31T08:34:17.269Z,13632.00
2019-03-31T08:35:17.442Z,14756.00
2019-03-31T08:36:17.624Z,16800.00
2019-03-31T08:37:17.812Z,16192.00
2019-03-31T08:38:17.992Z,14076.00
2019-03-31T08:39:18.165Z,16896.00
2019-03-31T08:40:18.347Z,18880.00
2019-03-31T08:41:18.541Z,18304.00
2019-03-31T08:42:18.719Z,17216.00
2019-03-31T08:43:18.889Z,17344.00
2019-03-31T08:44:19.069Z,17376.00
2019-03-31T08:45:19.253Z,17248.00
2019-03-31T08:46:19.433Z,18240.00
2019-03-31T08:47:19.621Z,18400.00
2019-03-31T08:48:19.796Z,18016.00
2019-03-31T08:49:19.977Z,17440.00
2019-03-31T08:50:20.157Z,17408.00
2019-03-31T08:51:20.336Z,17344.00
2019-03-31T08:52:20.520Z,14784.00
2019-03-31T08:53:20.705Z,17312.00
2019-03-31T08:54:20.880Z,17184.00
2019-03-31T08:55:21.063Z,17952.00
2019-03-31T08:56:21.249Z,18112.00
2019-03-31T08:57:21.433Z,17184.00
2019-03-31T08:58:21.619Z,16832.00
2019-03-31T08:59:21.806Z,14864.00
2019-03-31T09:00:21.988Z,16352.00
2019-03-31T09:01:22.170Z,14148.00
2019-03-31T09:02:22.369Z,14256.00
2019-03-31T09:03:22.546Z,14008.00
2019-03-31T09:04:22.738Z,14256.00
2019-03-31T09:05:22.913Z,15044.00
2019-03-31T09:06:23.091Z,14936.00
2019-03-31T09:07:23.268Z,15360.00
2019-03-31T09:08:23.451Z,15776.00
2019-03-31T09:09:23.630Z,16128.00
2019-03-31T09:10:23.824Z,16128.00
2019-03-31T09:11:24.004Z,16384.00
2019-03-31T09:12:24.177Z,15584.00
2019-03-31T09:13:24.368Z,16256.00
2019-03-31T09:14:24.548Z,15188.00
2019-03-31T09:15:24.736Z,13748.00
2019-03-31T09:16:24.914Z,13440.00
2019-03-31T09:17:25.099Z,14736.00
2019-03-31T09:18:25.273Z,12268.00
2019-03-31T09:19:25.462Z,11756.00
2019-03-31T09:20:27.831Z,12172.00
2019-03-31T09:21:25.887Z,13144.00
2019-03-31T09:22:26.064Z,12592.00
2019-03-31T09:23:26.252Z,11352.00
2019-03-31T09:24:26.432Z,11792.00
2019-03-31T09:25:26.607Z,11052.00
2019-03-31T09:26:26.790Z,10820.00
2019-03-31T09:27:26.981Z,10256.00
2019-03-31T09:28:27.152Z,10036.00
2019-03-31T09:29:27.349Z,10164.00
2019-03-31T09:30:29.452Z,9576.00
2019-03-31T09:31:27.655Z,9748.00
2019-03-31T09:32:30.244Z,9952.00
2019-03-31T09:33:28.056Z,10224.00
2019-03-31T09:34:28.241Z,10536.00
2019-03-31T09:35:29.622Z,10708.00
2019-03-31T09:36:29.269Z,10088.00
2019-03-31T09:37:28.817Z,9736.00
2019-03-31T09:38:28.999Z,9972.00
2019-03-31T09:39:29.194Z,10360.00
2019-03-31T09:40:29.365Z,11332.00
2019-03-31T09:41:29.661Z,10944.00
2019-03-31T09:42:29.716Z,11136.00
2019-03-31T09:43:29.903Z,10832.00
2019-03-31T09:44:30.479Z,10544.00
2019-03-31T09:45:30.257Z,10668.00
2019-03-31T09:46:31.836Z,11080.00
2019-03-31T09:47:30.644Z,11272.00
2019-03-31T09:48:30.823Z,11284.00
2019-03-31T09:49:30.996Z,10952.00
2019-03-31T09:50:31.178Z,10840.00
2019-03-31T09:51:31.361Z,11252.00
2019-03-31T09:52:31.546Z,11424.00
2019-03-31T09:53:31.720Z,11388.00
2019-03-31T09:54:31.903Z,10924.00
2019-03-31T09:55:32.781Z,10756.00
2019-03-31T09:56:32.326Z,10804.00
2019-03-31T09:57:32.509Z,11560.00
2019-03-31T09:58:32.701Z,11932.00
2019-03-31T09:59:32.867Z,11496.00
2019-03-31T10:00:33.051Z,10952.00
2019-03-31T10:01:33.238Z,11216.00
2019-03-31T10:02:33.420Z,12784.00
2019-03-31T10:03:33.592Z,12064.00
2019-03-31T10:04:33.774Z,11672.00
2019-03-31T10:05:33.959Z,11536.00
2019-03-31T10:06:34.159Z,11684.00
2019-03-31T10:07:34.311Z,10964.00
2019-03-31T10:08:34.496Z,10388.00
2019-03-31T10:09:34.677Z,9816.00
2019-03-31T10:10:34.857Z,9492.00
2019-03-31T10:11:35.047Z,9328.00
2019-03-31T10:12:36.427Z,9308.00
2019-03-31T10:13:35.354Z,9352.00
2019-03-31T10:14:35.530Z,9844.00
2019-03-31T10:15:35.714Z,10520.00
2019-03-31T10:16:35.896Z,10988.00
2019-03-31T10:17:36.093Z,11692.00
2019-03-31T10:18:36.269Z,12356.00
2019-03-31T10:19:36.454Z,11972.00
2019-03-31T10:20:36.635Z,12064.00
2019-03-31T10:21:36.828Z,11232.00
2019-03-31T10:22:37.004Z,11156.00
2019-03-31T10:23:37.181Z,11484.00
2019-03-31T10:24:37.361Z,12328.00
2019-03-31T10:25:37.546Z,11972.00
2019-03-31T10:26:37.726Z,12536.00
2019-03-31T10:27:37.909Z,12000.00
2019-03-31T10:28:38.145Z,11336.00
2019-03-31T10:29:38.294Z,10960.00
2019-03-31T10:30:38.479Z,10968.00
2019-03-31T10:31:38.655Z,11000.00
2019-03-31T10:32:40.032Z,12280.00
2019-03-31T10:33:39.096Z,11788.00
2019-03-31T10:34:39.272Z,11580.00
2019-03-31T10:35:39.454Z,10948.00
2019-03-31T10:36:44.581Z,10560.00
2019-03-31T10:37:39.814Z,10728.00
2019-03-31T10:38:39.996Z,10540.00
2019-03-31T10:39:40.183Z,10492.00
2019-03-31T10:40:40.372Z,10304.00
2019-03-31T10:41:40.545Z,10112.00
2019-03-31T10:42:40.730Z,10232.00
2019-03-31T10:43:40.913Z,9968.00
2019-03-31T10:44:41.104Z,9628.00
2019-03-31T10:45:41.290Z,9748.00
2019-03-31T10:46:41.499Z,9392.00
2019-03-31T10:47:41.652Z,9704.00
2019-03-31T10:48:41.841Z,9052.00
2019-03-31T10:49:42.020Z,9144.00
2019-03-31T10:50:42.203Z,9108.00
2019-03-31T10:51:42.404Z,8796.00
2019-03-31T10:52:42.564Z,9488.00
2019-03-31T10:53:42.753Z,9008.00
2019-03-31T10:54:43.788Z,9908.00
2019-03-31T10:55:43.133Z,9992.00
2019-03-31T10:56:43.279Z,9152.00
2019-03-31T10:57:43.461Z,8736.00
2019-03-31T10:58:43.634Z,8600.00
2019-03-31T10:59:43.819Z,8728.00
2019-03-31T11:00:45.006Z,8444.00
2019-03-31T11:01:44.227Z,8416.00
2019-03-31T11:02:44.490Z,8532.00
2019-03-31T11:03:44.604Z,8500.00
2019-03-31T11:04:44.772Z,9088.00
2019-03-31T11:05:44.957Z,8776.00
2019-03-31T11:06:58.276Z,8952.00
2019-03-31T11:07:46.560Z,9184.00
2019-03-31T11:08:45.500Z,10048.00
2019-03-31T11:09:47.300Z,8720.00
2019-03-31T11:11:45.988Z,7896.00
2019-03-31T11:12:46.160Z,7296.00
2019-03-31T11:13:46.344Z,7064.00
2019-03-31T11:14:46.527Z,7812.00
2019-03-31T11:15:46.722Z,6668.00
2019-03-31T11:16:46.889Z,6576.00
2019-03-31T11:17:47.078Z,6556.00
2019-03-31T11:18:47.252Z,6540.00
2019-03-31T11:19:47.442Z,6612.00
2019-03-31T11:20:47.611Z,6660.00
2019-03-31T11:21:47.792Z,6760.00
2019-03-31T11:22:47.977Z,6948.00
2019-03-31T11:23:48.157Z,7152.00
2019-03-31T11:24:48.339Z,7364.00
2019-03-31T11:25:48.513Z,7548.00
2019-03-31T11:26:48.690Z,7720.00
2019-03-31T11:27:48.873Z,7796.00
2019-03-31T11:28:49.055Z,7792.00
2019-03-31T11:29:49.236Z,7688.00
2019-03-31T11:30:50.621Z,7608.00
2019-03-31T11:31:49.542Z,7672.00
2019-03-31T11:32:50.297Z,8636.00
2019-03-31T11:33:49.857Z,9020.00
2019-03-31T11:34:50.043Z,8812.00
2019-03-31T11:35:50.223Z,10056.00
2019-03-31T11:36:50.408Z,10248.00
2019-03-31T11:37:50.579Z,10572.00
2019-03-31T11:38:50.782Z,10364.00
2019-03-31T11:39:50.931Z,10064.00
2019-03-31T11:40:51.104Z,9280.00
2019-03-31T11:41:52.308Z,8244.00
2019-03-31T11:42:52.204Z,7812.00
2019-03-31T11:43:51.643Z,7896.00
2019-03-31T11:44:51.813Z,8348.00
2019-03-31T11:45:51.999Z,7624.00
2019-03-31T11:46:52.189Z,7688.00
2019-03-31T11:47:52.364Z,8016.00
2019-03-31T11:48:52.544Z,8012.00
2019-03-31T11:49:52.722Z,7828.00
2019-03-31T11:50:52.908Z,8840.00
2019-03-31T11:51:53.088Z,8716.00
2019-03-31T11:52:53.283Z,8860.00
2019-03-31T11:53:53.461Z,9504.00
2019-03-31T11:54:53.644Z,9816.00
2019-03-31T11:55:53.816Z,9748.00
2019-03-31T11:56:54.005Z,9676.00
2019-03-31T11:57:54.186Z,9428.00
2019-03-31T11:58:54.364Z,8940.00
2019-03-31T11:59:54.550Z,9068.00
2019-03-31T12:00:54.731Z,8812.00
2019-03-31T12:01:54.910Z,8372.00
2019-03-31T12:02:55.091Z,7892.00
2019-03-31T12:03:55.273Z,7524.00
2019-03-31T12:04:55.454Z,7204.00
2019-03-31T12:05:55.648Z,6960.00
2019-03-31T12:06:55.818Z,6756.00
2019-03-31T12:07:56.002Z,6608.00
2019-03-31T12:08:56.182Z,6552.00
2019-03-31T12:09:56.362Z,6624.00
2019-03-31T12:10:56.543Z,6692.00
2019-03-31T12:11:56.724Z,6740.00
2019-03-31T12:12:56.909Z,6832.00
2019-03-31T12:13:57.091Z,6948.00
2019-03-31T12:15:00.644Z,7100.00
2019-03-31T12:15:58.320Z,7232.00
2019-03-31T12:16:57.628Z,7608.00
2019-03-31T12:17:57.811Z,7344.00
2019-03-31T12:18:58.845Z,7360.00
2019-03-31T12:19:58.150Z,7320.00
2019-03-31T12:20:58.340Z,7260.00
2019-03-31T12:21:58.523Z,6948.00
2019-03-31T12:22:58.707Z,6832.00
2019-03-31T12:23:58.894Z,6772.00
2019-03-31T12:24:59.061Z,6772.00
2019-03-31T12:25:59.246Z,6804.00
2019-03-31T12:26:59.424Z,6812.00
2019-03-31T12:27:59.609Z,6788.00
2019-03-31T12:28:59.785Z,6788.00
2019-03-31T12:29:59.968Z,6704.00
2019-03-31T12:31:00.149Z,6648.00
2019-03-31T12:32:00.325Z,6608.00
2019-03-31T12:33:00.546Z,6568.00